createdAt,value
2018-10-19T00:00:54.249Z,10.30
2018-10-19T00:03:21.929Z,10.20
2018-10-19T00:05:49.598Z,10.20
2018-10-19T00:08:17.252Z,10.30
2018-10-19T00:10:51.633Z,10.30
2018-10-19T00:13:19.296Z,10.20
2018-10-19T00:15:47.002Z,10.20
2018-10-19T00:18:14.685Z,10.20
2018-10-19T00:20:42.367Z,10.10
2018-10-19T00:23:10.079Z,10.10
2018-10-19T00:25:37.737Z,10.10
2018-10-19T00:28:05.440Z,10.10
2018-10-19T00:30:33.189Z,10.00
2018-10-19T00:33:00.905Z,10.00
2018-10-19T00:35:28.566Z,10.00
2018-10-19T00:37:56.249Z,9.90
2018-10-19T00:40:23.920Z,9.90
2018-10-19T00:42:51.602Z,9.80
2018-10-19T00:45:23.990Z,9.80
2018-10-19T00:47:51.674Z,9.80
2018-10-19T00:50:19.357Z,9.70
2018-10-19T00:52:47.033Z,9.70
2018-10-19T00:55:14.680Z,9.70
2018-10-19T00:57:42.321Z,9.60
2018-10-19T01:00:09.993Z,9.60
2018-10-19T01:02:37.683Z,9.60
2018-10-19T01:05:05.491Z,9.50
2018-10-19T01:07:33.173Z,9.50
2018-10-19T01:10:00.809Z,9.50
2018-10-19T01:12:28.465Z,9.50
2018-10-19T01:14:56.219Z,9.40
2018-10-19T01:17:23.845Z,9.40
2018-10-19T01:19:51.521Z,9.40
2018-10-19T01:22:19.218Z,9.30
2018-10-19T01:24:46.889Z,9.30
2018-10-19T01:27:14.762Z,9.30
2018-10-19T01:29:42.379Z,9.30
2018-10-19T01:32:10.066Z,9.20
2018-10-19T01:34:37.715Z,9.20
2018-10-19T01:37:05.413Z,9.20
2018-10-19T01:39:33.089Z,9.20
2018-10-19T01:42:00.782Z,9.20
2018-10-19T01:44:28.551Z,9.10
2018-10-19T01:46:56.208Z,9.10
2018-10-19T01:49:23.913Z,9.10
2018-10-19T01:51:51.618Z,9.00
2018-10-19T01:54:19.269Z,9.00
2018-10-19T01:56:46.924Z,9.00
2018-10-19T01:59:14.653Z,9.00
2018-10-19T02:01:42.306Z,9.00
2018-10-19T02:04:10.001Z,9.00
2018-10-19T02:06:37.672Z,9.00
2018-10-19T02:09:06.681Z,8.90
2018-10-19T02:11:34.325Z,8.90
2018-10-19T02:14:02.002Z,8.90
2018-10-19T02:16:29.729Z,8.80
2018-10-19T02:18:57.393Z,8.80
2018-10-19T02:21:25.053Z,8.70
2018-10-19T02:23:52.734Z,8.70
2018-10-19T02:26:20.428Z,8.70
2018-10-19T02:28:48.086Z,8.70
2018-10-19T02:31:15.765Z,8.70
2018-10-19T02:33:43.443Z,8.70
2018-10-19T02:36:11.120Z,8.60
2018-10-19T02:38:38.798Z,8.60
2018-10-19T02:41:06.542Z,8.60
2018-10-19T02:43:34.262Z,8.60
2018-10-19T02:46:01.929Z,8.60
2018-10-19T02:48:29.590Z,8.60
2018-10-19T02:50:57.397Z,8.60
2018-10-19T02:53:24.980Z,8.60
2018-10-19T02:55:52.640Z,8.60
2018-10-19T02:58:20.334Z,8.60
2018-10-19T03:00:48.008Z,8.60
2018-10-19T03:03:15.768Z,8.60
2018-10-19T03:05:43.411Z,8.50
2018-10-19T03:08:11.105Z,8.50
2018-10-19T03:10:38.761Z,8.50
2018-10-19T03:13:06.443Z,8.50
2018-10-19T03:15:34.113Z,8.50
2018-10-19T03:18:01.797Z,8.50
2018-10-19T03:20:29.469Z,8.50
2018-10-19T03:22:57.200Z,8.40
2018-10-19T03:25:24.873Z,8.40
2018-10-19T03:27:52.533Z,8.40
2018-10-19T03:30:20.251Z,8.40
2018-10-19T03:32:47.914Z,8.40
2018-10-19T03:35:15.614Z,8.30
2018-10-19T03:37:43.282Z,8.30
2018-10-19T03:40:10.961Z,8.30
2018-10-19T03:42:38.621Z,8.30
2018-10-19T03:45:06.699Z,8.30
2018-10-19T03:47:34.456Z,8.20
2018-10-19T03:50:02.162Z,8.20
2018-10-19T03:52:29.862Z,8.20
2018-10-19T03:54:57.524Z,8.20
2018-10-19T03:57:25.180Z,8.20
2018-10-19T03:59:52.861Z,8.20
2018-10-19T04:02:20.519Z,8.20
2018-10-19T04:04:48.195Z,8.20
2018-10-19T04:07:15.896Z,8.20
2018-10-19T04:09:43.565Z,8.20
2018-10-19T04:12:11.261Z,8.20
2018-10-19T04:14:38.955Z,8.20
2018-10-19T04:17:06.691Z,8.20
2018-10-19T04:19:34.337Z,8.20
2018-10-19T04:22:02.021Z,8.20
2018-10-19T04:24:29.673Z,8.10
2018-10-19T04:26:57.436Z,8.20
2018-10-19T04:29:25.058Z,8.10
2018-10-19T04:31:52.752Z,8.20
2018-10-19T04:34:20.429Z,8.10
2018-10-19T04:36:48.160Z,8.10
2018-10-19T04:39:15.869Z,8.10
2018-10-19T04:41:43.582Z,8.10
2018-10-19T04:44:11.213Z,8.10
2018-10-19T04:46:38.914Z,8.10
2018-10-19T04:49:06.577Z,8.00
2018-10-19T04:51:34.285Z,8.00
2018-10-19T04:54:02.017Z,8.00
2018-10-19T04:56:29.729Z,8.00
2018-10-19T04:58:57.547Z,7.90
2018-10-19T05:01:25.209Z,8.00
2018-10-19T05:03:52.918Z,7.90
2018-10-19T05:06:20.614Z,7.90
2018-10-19T05:08:48.319Z,7.90
2018-10-19T05:11:16.099Z,7.80
2018-10-19T05:13:43.713Z,7.80
2018-10-19T05:16:11.404Z,7.80
2018-10-19T05:18:39.085Z,7.70
2018-10-19T05:21:06.782Z,7.70
2018-10-19T05:23:34.461Z,7.60
2018-10-19T05:26:02.191Z,7.60
2018-10-19T05:28:29.819Z,7.50
2018-10-19T05:30:57.514Z,7.50
2018-10-19T05:33:25.256Z,7.40
2018-10-19T05:35:52.914Z,7.30
2018-10-19T05:38:20.606Z,7.30
2018-10-19T05:40:48.276Z,7.30
2018-10-19T05:43:15.963Z,7.30
2018-10-19T05:45:43.609Z,7.30
2018-10-19T05:48:11.314Z,7.30
2018-10-19T05:50:39.001Z,7.20
2018-10-19T05:53:06.707Z,7.20
2018-10-19T05:55:34.402Z,7.20
2018-10-19T05:58:02.089Z,7.20
2018-10-19T06:00:29.831Z,7.20
2018-10-19T06:02:57.510Z,7.20
2018-10-19T06:05:25.220Z,7.20
2018-10-19T06:07:52.970Z,7.20
2018-10-19T06:10:20.673Z,7.20
2018-10-19T06:12:48.456Z,7.20
2018-10-19T06:15:16.204Z,7.20
2018-10-19T06:17:43.857Z,7.20
2018-10-19T06:20:11.542Z,7.20
2018-10-19T06:22:39.245Z,7.20
2018-10-19T06:25:06.984Z,7.20
2018-10-19T06:27:34.757Z,7.20
2018-10-19T06:30:02.519Z,7.20
2018-10-19T06:32:30.217Z,7.30
2018-10-19T06:34:57.900Z,7.30
2018-10-19T06:37:25.564Z,7.30
2018-10-19T06:39:53.247Z,7.40
2018-10-19T06:42:20.934Z,7.40
2018-10-19T06:44:48.642Z,7.50
2018-10-19T06:47:16.405Z,7.50
2018-10-19T06:49:44.023Z,7.50
2018-10-19T06:52:11.729Z,7.50
2018-10-19T06:54:39.418Z,7.60
2018-10-19T06:57:07.091Z,7.60
2018-10-19T06:59:34.816Z,7.70
2018-10-19T07:02:02.529Z,7.70
2018-10-19T07:04:30.186Z,7.80
2018-10-19T07:06:57.890Z,7.80
2018-10-19T07:09:25.545Z,7.90
2018-10-19T07:11:53.202Z,7.90
2018-10-19T07:14:20.882Z,8.00
2018-10-19T07:16:48.562Z,8.00
2018-10-19T07:19:16.286Z,8.10
2018-10-19T07:21:44.024Z,8.10
2018-10-19T07:24:11.633Z,8.10
2018-10-19T07:26:39.337Z,8.20
2018-10-19T07:29:07.061Z,8.30
2018-10-19T07:31:34.714Z,8.30
2018-10-19T07:34:02.425Z,8.40
2018-10-19T07:36:30.168Z,8.40
2018-10-19T07:38:57.809Z,8.50
2018-10-19T07:41:25.513Z,8.60
2018-10-19T07:43:53.175Z,8.70
2018-10-19T07:46:20.861Z,8.70
2018-10-19T07:48:48.566Z,8.80
2018-10-19T07:51:16.239Z,8.90
2018-10-19T07:53:43.896Z,8.90
2018-10-19T07:56:11.678Z,9.00
2018-10-19T07:58:39.311Z,9.10
2018-10-19T08:01:07.022Z,9.20
2018-10-19T08:03:34.696Z,9.30
2018-10-19T08:06:02.646Z,9.40
2018-10-19T08:08:30.329Z,9.50
2018-10-19T08:10:57.996Z,9.60
2018-10-19T08:13:25.669Z,9.60
2018-10-19T08:15:53.348Z,9.70
2018-10-19T08:18:21.055Z,9.80
2018-10-19T08:20:48.762Z,9.90
2018-10-19T08:23:16.444Z,9.90
2018-10-19T08:25:44.958Z,10.00
2018-10-19T08:28:12.662Z,10.10
2018-10-19T08:30:40.354Z,10.20
2018-10-19T08:33:08.049Z,10.30
2018-10-19T08:35:35.729Z,10.30
2018-10-19T08:38:10.197Z,10.40
2018-10-19T08:40:37.885Z,10.50
2018-10-19T08:43:05.919Z,10.60
2018-10-19T08:45:33.557Z,10.70
2018-10-19T08:48:01.310Z,10.80
2018-10-19T08:50:28.968Z,10.80
2018-10-19T08:52:56.665Z,10.90
2018-10-19T08:55:24.373Z,11.00
2018-10-19T08:57:52.151Z,11.10
2018-10-19T09:00:19.811Z,11.20
2018-10-19T09:02:47.481Z,11.20
2018-10-19T09:05:15.159Z,11.20
2018-10-19T09:07:42.847Z,11.20
2018-10-19T09:10:10.526Z,11.20
2018-10-19T09:12:38.335Z,11.20
2018-10-19T09:15:06.418Z,11.30
2018-10-19T09:17:34.099Z,11.40
2018-10-19T09:20:01.763Z,11.50
2018-10-19T09:22:29.438Z,11.60
2018-10-19T09:24:57.140Z,11.70
2018-10-19T09:27:24.804Z,11.80
2018-10-19T09:29:52.474Z,11.90
2018-10-19T09:32:20.174Z,12.00
2018-10-19T09:34:47.865Z,12.10
2018-10-19T09:37:15.566Z,12.10
2018-10-19T09:39:43.230Z,12.30
2018-10-19T09:42:11.105Z,12.30
2018-10-19T09:44:38.771Z,12.40
2018-10-19T09:47:06.740Z,12.50
2018-10-19T09:49:34.389Z,12.60
2018-10-19T09:52:02.105Z,12.60
2018-10-19T09:54:29.780Z,12.80
2018-10-19T09:56:57.563Z,12.90
2018-10-19T09:59:25.217Z,13.00
2018-10-19T10:01:52.899Z,13.10
2018-10-19T10:04:20.615Z,13.20
2018-10-19T10:06:48.289Z,13.40
2018-10-19T10:09:16.785Z,13.50
2018-10-19T10:11:44.513Z,13.60
2018-10-19T10:14:12.221Z,13.80
2018-10-19T10:16:39.966Z,13.90
2018-10-19T10:19:07.800Z,14.00
2018-10-19T10:21:35.493Z,14.10
2018-10-19T10:24:03.257Z,14.20
2018-10-19T10:26:30.916Z,14.30
2018-10-19T10:29:05.857Z,14.50
2018-10-19T10:31:33.541Z,14.70
2018-10-19T10:34:01.344Z,14.80
2018-10-19T10:36:29.000Z,14.90
2018-10-19T10:38:56.728Z,15.00
2018-10-19T10:41:24.448Z,15.20
2018-10-19T10:43:52.161Z,15.20
2018-10-19T10:46:19.841Z,15.30
2018-10-19T10:48:47.495Z,15.40
2018-10-19T10:51:15.175Z,15.50
2018-10-19T10:53:42.845Z,15.60
2018-10-19T10:56:10.568Z,15.70
2018-10-19T10:58:38.233Z,15.80
2018-10-19T11:01:05.979Z,15.90
2018-10-19T11:03:33.639Z,16.00
2018-10-19T11:06:01.285Z,16.10
2018-10-19T11:08:28.950Z,16.20
2018-10-19T11:11:07.554Z,16.30
2018-10-19T11:13:35.281Z,16.40
2018-10-19T11:16:03.036Z,16.40
2018-10-19T11:18:30.694Z,16.50
2018-10-19T11:21:05.100Z,16.60
2018-10-19T11:23:32.817Z,16.70
2018-10-19T11:26:00.540Z,16.80
2018-10-19T11:28:28.445Z,16.90
2018-10-19T11:30:56.177Z,17.00
2018-10-19T11:33:23.887Z,17.00
2018-10-19T11:35:51.615Z,17.10
2018-10-19T11:38:19.276Z,17.10
2018-10-19T11:40:46.973Z,17.20
2018-10-19T11:43:14.693Z,17.40
2018-10-19T11:45:42.334Z,17.50
2018-10-19T11:48:10.031Z,17.50
2018-10-19T11:50:37.688Z,17.60
2018-10-19T11:53:05.370Z,17.60
2018-10-19T11:55:33.101Z,17.70
2018-10-19T11:58:00.797Z,17.70
2018-10-19T12:00:28.478Z,17.80
2018-10-19T12:02:56.146Z,18.00
2018-10-19T12:05:23.849Z,18.10
2018-10-19T12:07:51.520Z,18.00
2018-10-19T12:10:19.200Z,18.10
2018-10-19T12:12:46.968Z,18.10
2018-10-19T12:15:15.788Z,18.20
2018-10-19T12:17:44.156Z,18.30
2018-10-19T12:20:14.048Z,18.40
2018-10-19T12:22:41.698Z,18.40
2018-10-19T12:25:10.376Z,18.50
2018-10-19T12:27:38.586Z,18.60
2018-10-19T12:30:06.809Z,18.80
2018-10-19T12:32:34.532Z,18.80
2018-10-19T12:35:02.276Z,18.90
2018-10-19T12:37:29.946Z,18.90
2018-10-19T12:39:57.652Z,19.00
2018-10-19T12:42:25.345Z,19.10
2018-10-19T12:44:53.117Z,19.10
2018-10-19T12:47:30.984Z,19.20
2018-10-19T12:49:58.612Z,19.30
2018-10-19T12:52:26.341Z,19.40
2018-10-19T12:54:54.034Z,19.50
2018-10-19T12:57:21.738Z,19.60
2018-10-19T12:59:49.420Z,19.70
2018-10-19T13:02:17.105Z,19.80
2018-10-19T13:04:44.800Z,19.80
2018-10-19T13:07:12.658Z,19.90
2018-10-19T13:09:40.803Z,19.90
2018-10-19T13:12:08.618Z,20.00
2018-10-19T13:14:36.288Z,20.00
2018-10-19T13:17:04.057Z,20.10
2018-10-19T13:19:31.786Z,20.10
2018-10-19T13:21:59.442Z,20.20
2018-10-19T13:24:27.216Z,20.30
2018-10-19T13:26:55.014Z,20.30
2018-10-19T13:29:22.713Z,20.40
2018-10-19T13:31:50.384Z,20.50
2018-10-19T13:34:18.105Z,20.60
2018-10-19T13:36:45.934Z,20.80
2018-10-19T13:39:13.965Z,21.00
2018-10-19T13:41:42.096Z,21.20
2018-10-19T13:44:10.046Z,21.60
2018-10-19T13:46:37.813Z,21.80
2018-10-19T13:49:05.748Z,22.10
2018-10-19T13:51:33.917Z,22.30
2018-10-19T13:56:29.553Z,22.80
2018-10-19T13:58:57.263Z,23.10
2018-10-19T14:03:52.501Z,23.50
2018-10-19T14:06:20.200Z,23.70
2018-10-19T14:08:47.948Z,23.90
2018-10-19T14:11:15.873Z,24.20
2018-10-19T14:13:43.518Z,24.40
2018-10-19T14:16:11.209Z,24.60
2018-10-19T14:18:38.920Z,24.70
2018-10-19T14:21:06.686Z,24.60
2018-10-19T14:23:34.336Z,24.30
2018-10-19T14:26:02.041Z,24.20
2018-10-19T14:28:29.705Z,24.00
2018-10-19T14:30:57.397Z,24.10
2018-10-19T14:33:25.166Z,24.00
2018-10-19T14:35:52.845Z,24.00
2018-10-19T14:38:20.509Z,24.10
2018-10-19T14:40:48.212Z,24.20
2018-10-19T14:43:15.905Z,24.20
2018-10-19T14:48:18.157Z,24.20
2018-10-19T14:50:45.817Z,24.30
2018-10-19T14:53:13.516Z,24.20
2018-10-19T14:55:41.276Z,24.20
2018-10-19T14:58:08.929Z,24.20
2018-10-19T15:00:36.641Z,24.10
2018-10-19T15:03:04.447Z,24.20
2018-10-19T15:05:32.128Z,24.20
2018-10-19T15:07:59.822Z,24.20
2018-10-19T15:10:27.627Z,24.20
2018-10-19T15:12:55.178Z,24.10
2018-10-19T15:15:23.335Z,24.10
2018-10-19T15:17:51.033Z,24.00
2018-10-19T15:20:18.937Z,23.90
2018-10-19T15:22:46.833Z,23.80
2018-10-19T15:25:14.746Z,23.70
2018-10-19T15:27:43.781Z,23.60
2018-10-19T15:30:13.004Z,23.50
2018-10-19T15:32:40.833Z,23.40
2018-10-19T15:35:09.044Z,23.30
2018-10-19T15:37:36.781Z,23.20
2018-10-19T15:40:04.996Z,23.10
2018-10-19T15:42:32.716Z,22.90
2018-10-19T15:45:00.489Z,22.80
2018-10-19T15:47:29.972Z,22.60
2018-10-19T15:49:58.009Z,22.40
2018-10-19T15:52:32.520Z,22.30
2018-10-19T15:55:00.235Z,22.10
2018-10-19T15:57:28.001Z,21.90
2018-10-19T15:59:55.754Z,21.70
2018-10-19T16:02:23.482Z,21.50
2018-10-19T16:04:51.217Z,21.30
2018-10-19T16:07:19.285Z,21.00
2018-10-19T16:09:47.474Z,20.80
2018-10-19T16:12:15.336Z,20.60
2018-10-19T16:17:12.644Z,20.30
2018-10-19T16:19:40.881Z,20.10
2018-10-19T16:22:08.676Z,19.80
2018-10-19T16:24:36.430Z,19.70
2018-10-19T16:27:04.256Z,19.50
2018-10-19T16:29:31.922Z,19.40
2018-10-19T16:32:06.350Z,19.20
2018-10-19T16:34:34.041Z,19.10
2018-10-19T16:37:01.715Z,18.90
2018-10-19T16:39:29.416Z,18.80
2018-10-19T16:41:57.130Z,18.70
2018-10-19T16:44:24.814Z,18.60
2018-10-19T16:46:52.521Z,18.50
2018-10-19T16:49:20.174Z,18.30
2018-10-19T16:51:47.881Z,18.20
2018-10-19T16:54:15.709Z,18.00
2018-10-19T16:56:43.300Z,17.90
2018-10-19T16:59:11.062Z,17.70
2018-10-19T17:01:38.765Z,17.60
2018-10-19T17:04:06.740Z,17.50
2018-10-19T17:06:34.386Z,17.30
2018-10-19T17:09:02.146Z,17.30
2018-10-19T17:11:29.854Z,17.20
2018-10-19T17:13:57.534Z,17.20
2018-10-19T17:16:25.229Z,17.10
2018-10-19T17:18:52.911Z,16.90
2018-10-19T17:21:20.637Z,16.80
2018-10-19T17:23:48.362Z,16.70
2018-10-19T17:26:16.062Z,16.60
2018-10-19T17:28:43.772Z,16.50
2018-10-19T17:31:11.579Z,16.40
2018-10-19T17:33:39.272Z,16.30
2018-10-19T17:36:06.969Z,16.20
2018-10-19T17:38:34.592Z,16.20
2018-10-19T17:41:02.316Z,16.10
2018-10-19T17:43:30.079Z,16.00
2018-10-19T17:45:57.670Z,15.90
2018-10-19T17:48:25.356Z,15.80
2018-10-19T17:50:53.099Z,15.80
2018-10-19T17:53:20.802Z,15.70
2018-10-19T17:55:48.510Z,15.60
2018-10-19T17:58:16.162Z,15.50
2018-10-19T18:00:43.897Z,15.50
2018-10-19T18:03:11.621Z,15.50
2018-10-19T18:05:39.237Z,15.30
2018-10-19T18:08:06.933Z,15.20
2018-10-19T18:10:34.602Z,15.20
2018-10-19T18:13:02.370Z,15.20
2018-10-19T18:15:30.034Z,15.10
2018-10-19T18:17:57.684Z,15.00
2018-10-19T18:20:25.396Z,15.00
2018-10-19T18:22:53.260Z,15.00
2018-10-19T18:25:20.757Z,14.90
2018-10-19T18:27:48.478Z,14.80
2018-10-19T18:30:16.153Z,14.70
2018-10-19T18:32:43.798Z,14.70
2018-10-19T18:35:11.574Z,14.60
2018-10-19T18:37:39.646Z,14.60
2018-10-19T18:40:09.450Z,14.50
2018-10-19T18:42:37.168Z,14.40
2018-10-19T18:45:05.714Z,14.40
2018-10-19T18:47:33.444Z,14.40
2018-10-19T18:50:01.403Z,14.40
2018-10-19T18:52:29.235Z,14.30
2018-10-19T18:54:57.190Z,14.30
2018-10-19T18:57:24.987Z,14.20
2018-10-19T18:59:52.962Z,14.10
2018-10-19T19:02:20.805Z,14.00
2018-10-19T19:04:48.636Z,14.10
2018-10-19T19:07:16.423Z,14.10
2018-10-19T19:09:48.603Z,14.00
2018-10-19T19:12:16.445Z,14.00
2018-10-19T19:14:44.273Z,13.90
2018-10-19T19:17:12.016Z,13.90
2018-10-19T19:19:39.792Z,13.80
2018-10-19T19:22:07.473Z,13.80
2018-10-19T19:24:40.593Z,13.70
2018-10-19T19:27:08.292Z,13.70
2018-10-19T19:29:35.969Z,13.70
2018-10-19T19:32:03.765Z,13.60
2018-10-19T19:34:32.517Z,13.50
2018-10-19T19:37:00.210Z,13.40
2018-10-19T19:39:27.932Z,13.40
2018-10-19T19:42:59.830Z,13.20
2018-10-19T19:45:27.494Z,13.10
2018-10-19T19:48:00.641Z,13.00
2018-10-19T19:50:28.320Z,13.00
2018-10-19T19:52:56.085Z,13.00
2018-10-19T19:55:23.858Z,12.90
2018-10-19T19:57:51.521Z,12.90
2018-10-19T20:00:19.271Z,12.80
2018-10-19T20:02:46.964Z,12.70
2018-10-19T20:05:14.707Z,12.70
2018-10-19T20:07:42.362Z,12.70
2018-10-19T20:10:10.060Z,12.60
2018-10-19T20:12:37.939Z,12.50
2018-10-19T20:15:06.956Z,12.50
2018-10-19T20:17:34.718Z,12.50
2018-10-19T20:20:02.471Z,12.50
2018-10-19T20:22:30.154Z,12.40
2018-10-19T20:24:57.845Z,12.30
2018-10-19T20:27:25.560Z,12.30
2018-10-19T20:29:53.255Z,12.20
2018-10-19T20:32:21.127Z,12.20
2018-10-19T20:34:48.759Z,12.10
2018-10-19T20:37:16.518Z,12.10
2018-10-19T20:39:44.238Z,12.10
2018-10-19T20:42:11.958Z,12.00
2018-10-19T20:44:39.724Z,11.90
2018-10-19T20:47:07.497Z,11.90
2018-10-19T20:49:35.117Z,11.90
2018-10-19T20:52:02.855Z,11.90
2018-10-19T20:54:30.524Z,11.90
2018-10-19T20:56:58.280Z,11.80
2018-10-19T20:59:25.981Z,11.80
2018-10-19T21:01:53.835Z,11.70
2018-10-19T21:04:21.589Z,11.70
2018-10-19T21:06:49.378Z,11.60
2018-10-19T21:09:17.134Z,11.50
2018-10-19T21:11:44.898Z,11.50
2018-10-19T21:14:12.687Z,11.50
2018-10-19T21:16:40.310Z,11.40
2018-10-19T21:19:08.090Z,11.40
2018-10-19T21:21:35.765Z,11.30
2018-10-19T21:24:03.458Z,11.30
2018-10-19T21:26:31.158Z,11.20
2018-10-19T21:28:58.940Z,11.10
2018-10-19T21:31:26.587Z,11.10
2018-10-19T21:33:54.269Z,11.10
2018-10-19T21:36:21.972Z,11.00
2018-10-19T21:38:49.641Z,11.00
2018-10-19T21:41:17.316Z,10.90
2018-10-19T21:43:44.982Z,10.90
2018-10-19T21:46:12.658Z,10.90
2018-10-19T21:48:40.317Z,10.80
2018-10-19T21:51:07.989Z,10.80
2018-10-19T21:53:35.649Z,10.70
2018-10-19T21:56:03.406Z,10.70
2018-10-19T21:58:31.032Z,10.70
2018-10-19T22:00:58.696Z,10.70
2018-10-19T22:03:26.387Z,10.60
2018-10-19T22:05:54.053Z,10.60
2018-10-19T22:08:21.719Z,10.50
2018-10-19T22:10:49.396Z,10.50
2018-10-19T22:13:17.060Z,10.40
2018-10-19T22:15:44.724Z,10.40
2018-10-19T22:18:12.400Z,10.30
2018-10-19T22:20:40.049Z,10.30
2018-10-19T22:23:07.820Z,10.20
2018-10-19T22:25:35.428Z,10.20
2018-10-19T22:28:03.102Z,10.20
2018-10-19T22:30:30.756Z,10.10
2018-10-19T22:32:58.418Z,10.10
2018-10-19T22:35:26.097Z,10.10
2018-10-19T22:37:53.741Z,10.00
2018-10-19T22:40:21.433Z,10.00
2018-10-19T22:42:49.097Z,9.90
2018-10-19T22:45:16.761Z,9.90
2018-10-19T22:47:44.451Z,9.90
2018-10-19T22:50:12.093Z,9.90
2018-10-19T22:52:39.773Z,9.80
2018-10-19T22:55:07.548Z,9.80
2018-10-19T22:57:35.269Z,9.80
2018-10-19T23:00:02.999Z,9.80
2018-10-19T23:02:30.661Z,9.70
2018-10-19T23:04:58.383Z,9.70
2018-10-19T23:07:26.033Z,9.60
2018-10-19T23:09:53.698Z,9.60
2018-10-19T23:12:21.349Z,9.60
2018-10-19T23:14:49.042Z,9.60
2018-10-19T23:17:16.741Z,9.50
2018-10-19T23:19:44.399Z,9.50
2018-10-19T23:22:12.082Z,9.50
2018-10-19T23:24:39.761Z,9.40
2018-10-19T23:27:07.416Z,9.40
2018-10-19T23:29:35.090Z,9.40
2018-10-19T23:32:02.750Z,9.40
2018-10-19T23:34:30.496Z,9.30
2018-10-19T23:36:58.204Z,9.30
2018-10-19T23:39:25.852Z,9.20
2018-10-19T23:41:53.533Z,9.20
2018-10-19T23:44:21.201Z,9.20
2018-10-19T23:46:48.893Z,9.20
2018-10-19T23:49:16.614Z,9.10
2018-10-19T23:51:44.234Z,9.10
2018-10-19T23:54:11.921Z,9.10
2018-10-19T23:56:39.572Z,9.00
2018-10-19T23:59:07.225Z,9.00
